Time;durP1;ratioP1;P1;durP2;ratioP2;P2;SDS_P1;SDS_P2;PMS_P1;PMS_P2;Temp;Humidity;BMP_temperature;BMP_pressure;BME280_temperature;BME280_humidity;BME280_pressure;Samples;Min_cycle;Max_cycle;Signal;HPM_P1;HPM_P2
2022/10/12 00:01:15;;;;;;;5.70;1.83;;;6.10;99.90;;;;;;5065072;28;20048;-70
2022/10/12 00:03:41;;;;;;;2.83;1.57;;;6.00;99.90;;;;;;5064314;28;20071;-70
2022/10/12 00:06:10;;;;;;;1.90;1.13;;;5.90;99.90;;;;;;5062284;28;20803;-70
2022/10/12 00:08:37;;;;;;;1.60;0.90;;;5.80;99.90;;;;;;5057820;28;20098;-70
2022/10/12 00:11:04;;;;;;;1.80;1.20;;;5.70;99.90;;;;;;5065400;28;20105;-70
2022/10/12 00:13:30;;;;;;;3.13;1.70;;;5.60;99.90;;;;;;5052314;28;20037;-70
2022/10/12 00:16:00;;;;;;;2.80;1.60;;;5.60;99.90;;;;;;5062450;28;20044;-70
2022/10/12 00:18:26;;;;;;;3.10;1.50;;;5.40;99.90;;;;;;5038168;28;20046;-70
2022/10/12 00:21:04;;;;;;;3.03;1.77;;;5.40;99.90;;;;;;5063767;28;20561;-70
2022/10/12 00:23:30;;;;;;;5.47;2.20;;;5.40;99.90;;;;;;5064222;28;20041;-70
2022/10/12 00:25:59;;;;;;;4.87;2.20;;;5.50;99.90;;;;;;5065613;28;20052;-70
2022/10/12 00:28:25;;;;;;;3.77;1.93;;;5.40;99.90;;;;;;5049716;28;20139;-71
2022/10/12 00:30:50;;;;;;;4.00;2.47;;;5.40;99.90;;;;;;5066362;28;20143;-70
2022/10/12 00:33:16;;;;;;;15.90;2.57;;;5.60;99.90;;;;;;5065293;28;20159;-70
2022/10/12 00:35:42;;;;;;;3.57;1.70;;;5.40;99.90;;;;;;5064502;28;20056;-70
2022/10/12 00:38:07;;;;;;;5.03;2.10;;;5.40;99.90;;;;;;5048572;28;20052;-70
2022/10/12 00:40:33;;;;;;;47.97;3.53;;;5.40;99.90;;;;;;5048015;28;20610;-69
2022/10/12 00:42:58;;;;;;;3.87;1.70;;;5.30;99.90;;;;;;5025799;28;20769;-70
2022/10/12 00:45:25;;;;;;;4.10;1.30;;;5.50;99.90;;;;;;5065718;28;20416;-70
2022/10/12 00:47:55;;;;;;;2.30;1.70;;;5.30;99.90;;;;;;5047710;28;20179;-70
2022/10/12 00:50:26;;;;;;;4.30;1.77;;;5.30;99.90;;;;;;5064490;28;20151;-70
2022/10/12 00:53:04;;;;;;;2.40;1.65;;;5.30;99.90;;;;;;5063687;28;20052;-70
2022/10/12 00:55:35;;;;;;;2.47;1.33;;;5.30;99.90;;;;;;5063162;28;20078;-70
2022/10/12 00:58:03;;;;;;;6.75;1.33;;;5.30;99.90;;;;;;5047831;28;20049;-70
2022/10/12 01:00:29;;;;;;;2.13;1.70;;;5.20;99.90;;;;;;5065611;28;20060;-70
2022/10/12 01:02:55;;;;;;;2.63;1.33;;;5.20;99.90;;;;;;5063326;28;20048;-70
2022/10/12 01:05:22;;;;;;;4.73;1.60;;;5.20;99.90;;;;;;5056318;28;20045;-70
2022/10/12 01:07:48;;;;;;;5.00;1.73;;;5.30;99.90;;;;;;5047918;28;20048;-71
2022/10/12 01:10:13;;;;;;;3.60;1.50;;;5.20;99.90;;;;;;5057520;28;20056;-69
2022/10/12 01:12:41;;;;;;;5.53;2.30;;;5.20;99.90;;;;;;5054148;28;20075;-70
2022/10/12 01:15:09;;;;;;;3.10;1.80;;;5.20;99.90;;;;;;5064038;28;20040;-70
2022/10/12 01:17:49;;;;;;;1.90;1.50;;;5.10;99.90;;;;;;5030537;28;20652;-70
2022/10/12 01:20:51;;;;;;;3.03;1.55;;;5.20;99.90;;;;;;5063753;28;20615;-69
2022/10/12 01:23:17;;;;;;;2.50;1.63;;;5.20;99.90;;;;;;5057490;28;20131;-70
2022/10/12 01:26:00;;;;;;;4.47;1.40;;;5.20;99.90;;;;;;5065325;28;20119;-70
2022/10/12 01:28:32;;;;;;;3.13;1.03;;;5.20;99.90;;;;;;5030533;28;20215;-70
2022/10/12 01:31:04;;;;;;;2.30;0.93;;;5.10;99.90;;;;;;5061016;28;20420;-70
2022/10/12 01:33:47;;;;;;;4.77;1.10;;;5.10;99.90;;;;;;5064263;28;20052;-70
2022/10/12 01:36:30;;;;;;;4.70;1.13;;;5.10;99.90;;;;;;5055562;28;20052;-70
2022/10/12 01:39:20;;;;;;;2.17;1.20;;;5.00;99.90;;;;;;5063007;28;20110;-71
2022/10/12 01:41:56;;;;;;;6.43;1.37;;;5.00;99.90;;;;;;5065086;28;20048;-70
2022/10/12 01:44:23;;;;;;;23.50;1.67;;;4.90;99.90;;;;;;5061633;28;20043;-70
2022/10/12 01:46:51;;;;;;;3.73;1.63;;;4.80;99.90;;;;;;5048090;28;20052;-70
2022/10/12 01:49:22;;;;;;;3.83;1.50;;;4.80;99.90;;;;;;5062191;28;20059;-70
2022/10/12 01:52:01;;;;;;;2.88;1.45;;;4.70;99.90;;;;;;5052221;28;20044;-70
2022/10/12 01:54:33;;;;;;;4.33;1.97;;;4.80;99.90;;;;;;5054787;28;20056;-70
2022/10/12 01:57:17;;;;;;;2.50;1.40;;;4.80;99.90;;;;;;5045163;28;20076;-70
2022/10/12 02:00:10;;;;;;;1.50;1.30;;;4.80;99.90;;;;;;5062059;28;20078;-70
2022/10/12 02:02:54;;;;;;;2.60;1.73;;;4.80;99.90;;;;;;5064013;28;20381;-70
2022/10/12 02:05:29;;;;;;;2.93;1.70;;;4.90;99.90;;;;;;5064800;28;20056;-70
2022/10/12 02:08:17;;;;;;;2.83;1.73;;;4.90;99.90;;;;;;5048304;28;20044;-70
2022/10/12 02:10:54;;;;;;;3.90;1.73;;;5.00;99.90;;;;;;5063237;28;20087;-70
2022/10/12 02:13:23;;;;;;;4.37;1.93;;;5.00;99.90;;;;;;5046359;28;20562;-70
2022/10/12 02:15:50;;;;;;;4.73;1.83;;;5.00;99.90;;;;;;5061953;28;20120;-70
2022/10/12 02:18:18;;;;;;;3.40;1.83;;;5.00;99.90;;;;;;5046573;28;20135;-70
2022/10/12 02:20:46;;;;;;;4.50;1.90;;;5.00;99.90;;;;;;5064709;28;20330;-70
2022/10/12 02:23:13;;;;;;;5.40;2.17;;;5.10;99.90;;;;;;5064077;28;20408;-70
2022/10/12 02:25:40;;;;;;;5.70;1.90;;;5.10;99.90;;;;;;5064081;28;20088;-70
2022/10/12 02:28:12;;;;;;;5.40;2.13;;;5.20;99.90;;;;;;5046720;28;20052;-70
2022/10/12 02:30:47;;;;;;;5.03;2.10;;;5.20;99.90;;;;;;5063003;28;20189;-70
2022/10/12 02:33:24;;;;;;;5.70;1.97;;;5.20;99.90;;;;;;5063756;28;20051;-70
2022/10/12 02:35:57;;;;;;;3.53;2.07;;;5.00;99.90;;;;;;5061631;28;20167;-70
2022/10/12 02:38:38;;;;;;;3.43;1.80;;;5.30;99.90;;;;;;5060158;28;20350;-70
2022/10/12 02:41:07;;;;;;;5.78;2.72;;;5.30;99.90;;;;;;5061299;28;20506;-70
2022/10/12 02:43:41;;;;;;;5.30;2.30;;;5.30;99.90;;;;;;5049321;28;20045;-70
2022/10/12 02:46:09;;;;;;;6.40;2.53;;;5.20;99.90;;;;;;5052237;28;20507;-70
2022/10/12 02:48:37;;;;;;;4.43;2.67;;;5.20;99.90;;;;;;5052333;28;20117;-70
2022/10/12 02:51:06;;;;;;;6.03;2.60;;;5.20;99.90;;;;;;5062693;28;20051;-70
2022/10/12 02:53:31;;;;;;;6.27;2.47;;;5.20;99.90;;;;;;5056736;28;20110;-70
2022/10/12 02:56:05;;;;;;;7.67;2.20;;;5.30;99.90;;;;;;5062750;28;20048;-70
2022/10/12 02:58:30;;;;;;;5.03;1.93;;;5.30;99.90;;;;;;5046380;28;20144;-70
2022/10/12 03:00:56;;;;;;;9.23;2.60;;;5.30;99.90;;;;;;5064042;28;20123;-70
2022/10/12 03:03:22;;;;;;;4.77;2.23;;;5.30;99.90;;;;;;5063382;28;20123;-70
2022/10/12 03:05:48;;;;;;;6.10;2.73;;;5.30;99.90;;;;;;5062639;28;20090;-70
2022/10/12 03:08:13;;;;;;;6.67;2.63;;;5.40;99.90;;;;;;5029448;28;20098;-71
2022/10/12 03:10:39;;;;;;;5.70;2.70;;;5.40;99.90;;;;;;5067542;28;20068;-70
2022/10/12 03:13:05;;;;;;;6.37;2.80;;;5.40;99.90;;;;;;5054845;28;20450;-70
2022/10/12 03:15:30;;;;;;;7.87;2.80;;;5.40;99.90;;;;;;5050237;28;20044;-71
2022/10/12 03:17:56;;;;;;;7.70;2.57;;;5.40;99.90;;;;;;5000784;28;20559;-70
2022/10/12 03:20:22;;;;;;;5.73;2.60;;;5.40;99.90;;;;;;5047299;28;20121;-70
2022/10/12 03:22:48;;;;;;;7.63;2.50;;;5.40;99.90;;;;;;5047678;28;20127;-70
2022/10/12 03:25:13;;;;;;;4.83;2.30;;;5.40;99.90;;;;;;5065189;28;20055;-70
2022/10/12 03:27:39;;;;;;;6.63;2.40;;;5.40;99.90;;;;;;5032529;28;20048;-71
2022/10/12 03:30:05;;;;;;;4.97;2.33;;;5.40;99.90;;;;;;5067906;28;20064;-70
2022/10/12 03:32:31;;;;;;;7.63;2.77;;;5.40;99.90;;;;;;5054272;28;20538;-70
2022/10/12 03:34:56;;;;;;;4.87;2.17;;;5.40;99.90;;;;;;5050958;28;20060;-71
2022/10/12 03:37:22;;;;;;;4.97;2.23;;;5.40;99.90;;;;;;5049573;28;20127;-70
2022/10/12 03:39:48;;;;;;;9.57;2.60;;;5.40;99.90;;;;;;5066589;28;20219;-70
2022/10/12 03:42:14;;;;;;;7.27;2.40;;;5.30;99.90;;;;;;5064249;28;20043;-71
2022/10/12 03:44:40;;;;;;;2.93;1.90;;;5.40;99.90;;;;;;5062627;28;20087;-70
2022/10/12 03:47:06;;;;;;;5.00;2.03;;;5.40;99.90;;;;;;5050014;28;20080;-70
2022/10/12 03:49:31;;;;;;;4.30;1.73;;;5.40;99.90;;;;;;5064433;28;20044;-70
2022/10/12 03:51:57;;;;;;;3.73;1.70;;;5.40;99.90;;;;;;5059842;28;20040;-70
2022/10/12 03:54:23;;;;;;;7.37;2.00;;;5.40;99.90;;;;;;5045109;28;20550;-70
2022/10/12 03:56:48;;;;;;;6.57;1.93;;;5.30;99.90;;;;;;5032532;28;20075;-70
2022/10/12 03:59:14;;;;;;;6.97;2.30;;;5.20;99.90;;;;;;5047498;28;20049;-70
2022/10/12 04:01:40;;;;;;;5.83;1.63;;;5.30;99.90;;;;;;5066952;28;20517;-70
2022/10/12 04:04:05;;;;;;;3.33;1.83;;;5.30;99.90;;;;;;5064951;28;20829;-70
2022/10/12 04:06:31;;;;;;;3.40;1.70;;;5.20;99.90;;;;;;5049740;28;20040;-70
2022/10/12 04:08:57;;;;;;;7.43;2.10;;;5.20;99.90;;;;;;5037071;28;20088;-71
2022/10/12 04:11:22;;;;;;;5.07;2.73;;;5.40;99.90;;;;;;5064987;28;20062;-70
2022/10/12 04:13:48;;;;;;;7.13;1.90;;;5.20;99.90;;;;;;5060124;28;20094;-70
2022/10/12 04:16:14;;;;;;;6.63;2.00;;;5.10;99.90;;;;;;5057559;28;20051;-70
2022/10/12 04:18:39;;;;;;;3.97;1.70;;;5.20;99.90;;;;;;5057634;28;20098;-70
2022/10/12 04:21:09;;;;;;;5.47;2.00;;;5.20;99.90;;;;;;5060655;28;20048;-70
2022/10/12 04:23:35;;;;;;;10.43;4.03;;;5.10;99.90;;;;;;5063937;28;21018;-70
2022/10/12 04:26:00;;;;;;;10.20;4.30;;;5.40;99.90;;;;;;5062572;28;20131;-70
2022/10/12 04:28:26;;;;;;;8.67;4.63;;;5.20;99.90;;;;;;5031677;28;20511;-70
2022/10/12 04:30:52;;;;;;;6.87;3.43;;;5.30;99.90;;;;;;5048324;28;20056;-70
2022/10/12 04:33:17;;;;;;;6.93;3.63;;;5.30;99.90;;;;;;5063828;28;20044;-70
2022/10/12 04:35:43;;;;;;;6.57;4.37;;;5.30;99.90;;;;;;5046945;28;20174;-70
2022/10/12 04:38:09;;;;;;;5.87;2.80;;;5.20;99.90;;;;;;5049983;28;20526;-70
2022/10/12 04:40:34;;;;;;;3.97;1.87;;;5.10;99.90;;;;;;5058373;28;20047;-70
2022/10/12 04:43:00;;;;;;;4.57;1.63;;;5.00;99.90;;;;;;5051454;28;20044;-70
2022/10/12 04:45:26;;;;;;;2.43;1.43;;;4.90;99.90;;;;;;5051048;28;20206;-70
2022/10/12 04:47:51;;;;;;;1.97;1.77;;;4.90;99.90;;;;;;5031612;28;20060;-70
2022/10/12 04:50:17;;;;;;;5.00;2.00;;;4.90;99.90;;;;;;5065755;28;20086;-70
2022/10/12 04:52:43;;;;;;;3.73;2.03;;;4.80;99.90;;;;;;5063448;28;20419;-70
2022/10/12 04:55:08;;;;;;;7.63;2.20;;;4.80;99.90;;;;;;5047384;28;20036;-70
2022/10/12 04:57:34;;;;;;;6.77;2.33;;;4.90;99.90;;;;;;5047839;28;20040;-70
2022/10/12 05:00:00;;;;;;;9.47;3.80;;;4.90;99.90;;;;;;5064161;28;20056;-70
2022/10/12 05:02:25;;;;;;;6.20;2.10;;;4.90;99.90;;;;;;5064859;28;20483;-70
2022/10/12 05:04:51;;;;;;;5.33;2.10;;;4.90;99.90;;;;;;5065331;28;20048;-70
2022/10/12 05:07:16;;;;;;;3.17;2.20;;;4.70;99.90;;;;;;5030481;28;20063;-70
2022/10/12 05:09:42;;;;;;;3.13;2.13;;;4.80;99.90;;;;;;5063976;28;20045;-70
2022/10/12 05:12:08;;;;;;;5.67;2.17;;;4.80;99.90;;;;;;5058834;28;20037;-70
2022/10/12 05:14:34;;;;;;;5.37;2.67;;;4.70;99.90;;;;;;5046729;28;20059;-70
2022/10/12 05:16:59;;;;;;;8.83;2.60;;;4.80;99.90;;;;;;5031687;28;20047;-70
2022/10/12 05:19:25;;;;;;;5.87;2.50;;;4.70;99.90;;;;;;5062738;28;20056;-70
2022/10/12 05:21:53;;;;;;;5.40;2.37;;;4.80;99.90;;;;;;5065589;28;20213;-70
2022/10/12 05:24:19;;;;;;;2.67;1.90;;;4.80;99.90;;;;;;5062841;28;20040;-70
2022/10/12 05:26:44;;;;;;;3.90;1.90;;;4.60;99.90;;;;;;5050379;28;20047;-70
2022/10/12 05:29:10;;;;;;;6.33;2.57;;;4.70;99.90;;;;;;5064180;28;20048;-71
2022/10/12 05:31:36;;;;;;;3.93;2.50;;;4.70;99.90;;;;;;5064778;28;20059;-70
2022/10/12 05:34:01;;;;;;;6.40;2.47;;;4.70;99.90;;;;;;5060227;28;20496;-69
2022/10/12 05:36:27;;;;;;;4.57;3.07;;;4.70;99.90;;;;;;5051015;28;20059;-70
2022/10/12 05:38:53;;;;;;;8.40;4.13;;;4.70;99.90;;;;;;5060200;28;20126;-70
2022/10/12 05:41:18;;;;;;;12.17;5.00;;;4.80;99.90;;;;;;5063720;28;20052;-70
2022/10/12 05:43:44;;;;;;;12.33;5.40;;;4.80;99.90;;;;;;5050556;28;20507;-70
2022/10/12 05:46:10;;;;;;;15.40;6.37;;;4.80;99.90;;;;;;5051596;28;20045;-70
2022/10/12 05:48:35;;;;;;;14.80;7.07;;;4.80;99.90;;;;;;5056179;28;20059;-70
2022/10/12 05:51:01;;;;;;;10.70;6.57;;;4.90;99.90;;;;;;5055988;28;20068;-69
2022/10/12 05:53:27;;;;;;;14.03;5.63;;;4.80;99.90;;;;;;5060733;28;20083;-70
2022/10/12 05:55:59;;;;;;;11.40;6.70;;;4.80;99.90;;;;;;5065312;28;20044;-70
2022/10/12 05:58:27;;;;;;;13.77;6.13;;;4.80;99.90;;;;;;5046813;28;20411;-70
2022/10/12 06:00:54;;;;;;;16.13;6.97;;;4.80;99.90;;;;;;5063316;28;20087;-70
2022/10/12 06:03:20;;;;;;;18.70;6.73;;;4.80;99.90;;;;;;5062222;28;20040;-70
2022/10/12 06:05:46;;;;;;;14.33;5.57;;;4.90;99.90;;;;;;5046487;28;20122;-70
2022/10/12 06:08:13;;;;;;;9.93;5.07;;;4.80;99.90;;;;;;5044439;28;20056;-70
2022/10/12 06:10:50;;;;;;;11.73;5.63;;;4.70;99.90;;;;;;5064593;28;20036;-71
2022/10/12 06:13:18;;;;;;;10.20;5.43;;;4.80;99.90;;;;;;5049727;28;20102;-70
2022/10/12 06:15:47;;;;;;;11.87;4.50;;;4.70;99.90;;;;;;5048573;28;20053;-70
2022/10/12 06:18:15;;;;;;;7.97;4.50;;;4.80;99.90;;;;;;5030321;28;20138;-70
2022/10/12 06:20:50;;;;;;;8.73;4.43;;;4.60;99.90;;;;;;5062657;28;20849;-70
2022/10/12 06:23:16;;;;;;;6.33;4.37;;;4.60;99.90;;;;;;5061544;28;20092;-70
2022/10/12 06:25:44;;;;;;;13.23;4.03;;;4.50;99.90;;;;;;5044806;28;20075;-70
2022/10/12 06:28:09;;;;;;;8.97;4.50;;;4.50;99.90;;;;;;5045498;28;20403;-70
2022/10/12 06:30:35;;;;;;;12.20;4.40;;;4.60;99.90;;;;;;5061471;28;20036;-71
2022/10/12 06:33:00;;;;;;;11.33;4.73;;;4.50;99.90;;;;;;5061147;28;20040;-70
2022/10/12 06:35:26;;;;;;;10.93;4.80;;;4.60;99.90;;;;;;5061115;28;20086;-70
2022/10/12 06:37:52;;;;;;;8.57;4.07;;;4.60;99.90;;;;;;5043880;28;20093;-70
2022/10/12 06:40:18;;;;;;;7.77;3.93;;;4.60;99.90;;;;;;5059599;28;20304;-70
2022/10/12 06:42:44;;;;;;;12.03;4.97;;;4.70;99.90;;;;;;5060685;28;20044;-70
2022/10/12 06:45:10;;;;;;;7.23;4.20;;;4.80;99.90;;;;;;5061545;28;20048;-70
2022/10/12 06:47:36;;;;;;;9.30;4.77;;;4.80;99.90;;;;;;5039028;28;20577;-70
2022/10/12 06:50:02;;;;;;;9.50;4.83;;;4.80;99.90;;;;;;5065841;28;20048;-70
2022/10/12 06:52:28;;;;;;;13.27;6.37;;;4.90;99.90;;;;;;5065410;28;20119;-71
2022/10/12 06:54:53;;;;;;;15.03;7.93;;;5.20;99.90;;;;;;5067722;28;20140;-70
2022/10/12 06:57:19;;;;;;;16.20;7.43;;;5.50;99.90;;;;;;5050926;28;20601;-70
2022/10/12 06:59:45;;;;;;;18.80;8.70;;;5.40;99.90;;;;;;5065939;28;20442;-70
2022/10/12 07:02:10;;;;;;;23.97;10.10;;;5.60;99.90;;;;;;5064902;28;20420;-70
2022/10/12 07:04:36;;;;;;;22.23;9.37;;;5.70;99.90;;;;;;5049109;28;20056;-70
2022/10/12 07:07:02;;;;;;;20.90;9.73;;;5.70;99.90;;;;;;5033398;28;20678;-70
2022/10/12 07:09:28;;;;;;;15.37;9.10;;;5.70;99.90;;;;;;5064884;28;20122;-70
2022/10/12 07:11:54;;;;;;;18.07;9.57;;;5.90;99.90;;;;;;5062352;28;20095;-70
2022/10/12 07:14:20;;;;;;;16.90;8.43;;;6.10;99.90;;;;;;5065562;28;20051;-70
2022/10/12 07:16:46;;;;;;;18.10;8.50;;;6.10;99.90;;;;;;5052193;28;20575;-70
2022/10/12 07:19:12;;;;;;;15.90;7.83;;;6.10;99.90;;;;;;5043556;28;20049;-70
2022/10/12 07:21:38;;;;;;;14.77;7.97;;;6.20;99.90;;;;;;5059116;28;20040;-70
2022/10/12 07:24:04;;;;;;;17.43;8.27;;;6.20;99.90;;;;;;5051543;28;20048;-70
2022/10/12 07:26:30;;;;;;;19.83;8.73;;;6.20;99.90;;;;;;5046105;28;20048;-71
2022/10/12 07:28:56;;;;;;;17.83;8.80;;;6.40;99.90;;;;;;5048823;28;20122;-71
2022/10/12 07:31:23;;;;;;;19.73;9.47;;;6.50;99.90;;;;;;5058388;28;20052;-70
2022/10/12 07:33:48;;;;;;;19.67;9.50;;;6.60;99.90;;;;;;5052672;28;20048;-70
2022/10/12 07:36:14;;;;;;;16.97;8.83;;;6.70;99.90;;;;;;5048623;28;20525;-71
2022/10/12 07:38:43;;;;;;;26.03;9.83;;;6.80;99.90;;;;;;5050471;28;20420;-71
2022/10/12 07:41:09;;;;;;;18.90;9.30;;;6.90;99.90;;;;;;5058020;28;20040;-70
2022/10/12 07:43:35;;;;;;;18.57;8.83;;;7.10;99.90;;;;;;5058876;28;20813;-71
2022/10/12 07:46:02;;;;;;;17.40;8.37;;;7.20;99.90;;;;;;5058584;28;20040;-70
2022/10/12 07:48:28;;;;;;;18.97;8.60;;;7.30;99.90;;;;;;5040928;28;20086;-70
2022/10/12 07:50:54;;;;;;;15.40;7.33;;;7.40;99.90;;;;;;5056860;28;20049;-70
2022/10/12 07:53:19;;;;;;;17.80;7.70;;;7.50;99.90;;;;;;5056412;28;20056;-70
2022/10/12 07:55:45;;;;;;;16.77;7.37;;;7.60;99.90;;;;;;5056837;28;20040;-70
2022/10/12 07:58:11;;;;;;;16.00;8.20;;;7.60;99.90;;;;;;5042912;28;20135;-70
2022/10/12 08:00:37;;;;;;;23.00;8.73;;;7.70;99.90;;;;;;5056270;28;20075;-70
2022/10/12 08:03:03;;;;;;;15.80;7.87;;;7.90;99.90;;;;;;5057700;28;20051;-71
2022/10/12 08:05:29;;;;;;;21.33;7.67;;;8.00;99.90;;;;;;5058688;28;20045;-70
2022/10/12 08:07:55;;;;;;;18.23;7.90;;;8.10;99.90;;;;;;5042948;28;20048;-71
2022/10/12 08:10:20;;;;;;;15.17;7.00;;;8.20;99.90;;;;;;5056476;28;20037;-70
2022/10/12 08:12:46;;;;;;;19.90;8.33;;;8.40;99.90;;;;;;5056074;28;20055;-70
2022/10/12 08:15:13;;;;;;;20.00;7.93;;;8.50;99.90;;;;;;5058681;28;20102;-71
2022/10/12 08:17:38;;;;;;;21.53;7.43;;;8.60;99.90;;;;;;5044013;28;20055;-71
2022/10/12 08:20:05;;;;;;;16.90;6.70;;;8.80;99.90;;;;;;5042279;28;20047;-70
2022/10/12 08:22:31;;;;;;;17.10;6.70;;;8.90;99.90;;;;;;5045850;28;20052;-70
2022/10/12 08:24:56;;;;;;;19.70;6.80;;;9.00;99.90;;;;;;5061346;28;20534;-71
2022/10/12 08:27:22;;;;;;;21.07;6.30;;;9.10;99.90;;;;;;5045108;28;20159;-71
2022/10/12 08:29:48;;;;;;;20.40;6.97;;;9.20;99.90;;;;;;5060173;28;20080;-71
2022/10/12 08:32:13;;;;;;;21.37;6.73;;;9.10;99.90;;;;;;5060244;28;20141;-71
2022/10/12 08:34:39;;;;;;;17.60;6.17;;;9.40;99.90;;;;;;5060638;28;20522;-71
2022/10/12 08:37:05;;;;;;;17.17;7.03;;;9.50;99.90;;;;;;5044788;28;20040;-71
2022/10/12 08:39:31;;;;;;;20.10;6.63;;;9.60;99.90;;;;;;5059338;28;20052;-71
2022/10/12 08:42:34;;;;;;;18.73;6.63;;;9.70;99.90;;;;;;5060392;28;20048;-70
2022/10/12 08:45:32;;;;;;;16.20;6.53;;;9.80;99.90;;;;;;5061454;28;20093;-71
2022/10/12 08:48:13;;;;;;;17.17;5.97;;;9.80;99.90;;;;;;5029512;28;20202;-70
2022/10/12 08:50:52;;;;;;;18.15;5.97;;;9.80;99.90;;;;;;5045782;28;20354;-70
2022/10/12 08:53:25;;;;;;;16.00;6.10;;;9.80;99.90;;;;;;5036123;28;20041;-71
2022/10/12 08:55:51;;;;;;;18.70;7.20;;;9.80;99.90;;;;;;5057969;28;20048;-71
2022/10/12 08:58:31;;;;;;;17.93;7.63;;;9.90;99.90;;;;;;5043156;28;20048;-70
2022/10/12 09:01:11;;;;;;;17.47;6.60;;;10.00;99.90;;;;;;5058577;28;20067;-71
2022/10/12 09:03:56;;;;;;;16.60;5.33;;;10.10;99.90;;;;;;5055276;28;20106;-71
2022/10/12 09:06:27;;;;;;;20.63;6.23;;;10.20;99.90;;;;;;5048069;28;20048;-70
2022/10/12 09:09:25;;;;;;;15.03;5.77;;;10.40;99.90;;;;;;5047948;28;20050;-70
2022/10/12 09:12:04;;;;;;;17.30;5.73;;;10.40;99.90;;;;;;5054299;28;20138;-70
2022/10/12 09:14:32;;;;;;;18.80;6.03;;;10.40;99.90;;;;;;5056071;28;20145;-70
2022/10/12 09:17:01;;;;;;;18.30;6.50;;;10.50;99.90;;;;;;5041465;28;20044;-70
2022/10/12 09:19:39;;;;;;;16.48;7.20;;;10.50;99.90;;;;;;5053724;28;20177;-70
2022/10/12 09:22:18;;;;;;;19.13;7.83;;;10.70;99.90;;;;;;5060172;28;20044;-70
2022/10/12 09:24:47;;;;;;;15.95;7.65;;;10.80;99.90;;;;;;5056666;28;20049;-70
2022/10/12 09:27:16;;;;;;;20.60;8.10;;;10.80;99.90;;;;;;5041791;28;20612;-70
2022/10/12 09:29:46;;;;;;;19.80;7.80;;;10.90;99.90;;;;;;5054829;28;20053;-70
2022/10/12 09:32:19;;;;;;;25.97;9.80;;;11.00;99.90;;;;;;5056911;28;20044;-71
2022/10/12 09:34:45;;;;;;;17.07;8.00;;;11.20;99.90;;;;;;5056835;28;20049;-70
2022/10/12 09:37:23;;;;;;;20.45;8.18;;;11.30;99.90;;;;;;5043853;28;20048;-70
2022/10/12 09:39:49;;;;;;;16.05;6.55;;;11.50;99.90;;;;;;5054534;28;20064;-70
2022/10/12 09:42:15;;;;;;;20.77;8.55;;;11.60;99.90;;;;;;5055588;28;20041;-70
2022/10/12 09:44:54;;;;;;;20.67;8.65;;;11.60;99.90;;;;;;5058185;28;20044;-71
2022/10/12 09:47:27;;;;;;;17.70;7.05;;;11.70;99.90;;;;;;5040591;28;20508;-70
2022/10/12 09:49:57;;;;;;;15.88;8.38;;;11.80;99.90;;;;;;5056010;28;20073;-70
2022/10/12 09:52:47;;;;;;;19.67;6.38;;;11.90;99.90;;;;;;5056449;28;20053;-70
2022/10/12 09:55:31;;;;;;;13.13;6.13;;;12.00;99.90;;;;;;5073456;28;20102;-70
2022/10/12 09:58:01;;;;;;;18.48;7.10;;;12.10;99.90;;;;;;5040250;28;20057;-71
2022/10/12 10:00:34;;;;;;;17.80;6.20;;;12.10;99.90;;;;;;5057666;28;20055;-70
2022/10/12 10:03:01;;;;;;;20.27;6.13;;;12.20;99.90;;;;;;5054291;28;20603;-70
2022/10/12 10:05:32;;;;;;;13.05;5.43;;;12.30;99.90;;;;;;5058858;28;20816;-70
2022/10/12 10:08:18;;;;;;;13.30;6.30;;;12.40;99.90;;;;;;5038759;28;20135;-70
2022/10/12 10:10:57;;;;;;;15.70;6.35;;;12.40;99.90;;;;;;5056201;28;20041;-71
2022/10/12 10:13:27;;;;;;;15.70;5.60;;;12.40;99.90;;;;;;5055566;28;20541;-70
2022/10/12 10:16:08;;;;;;;14.65;6.00;;;12.40;99.90;;;;;;5058425;28;20049;-70
2022/10/12 10:18:43;;;;;;;16.27;5.77;;;12.40;99.90;;;;;;5044168;28;20385;-70
2022/10/12 10:21:11;;;;;;;14.68;5.40;;;12.50;99.90;;;;;;5060425;28;20340;-71
2022/10/12 10:23:40;;;;;;;15.98;6.32;;;12.70;99.90;;;;;;5060167;28;20492;-71
2022/10/12 10:26:11;;;;;;;11.25;4.80;;;12.60;99.90;;;;;;5064063;28;20045;-70
2022/10/12 10:28:39;;;;;;;16.05;5.40;;;12.70;99.90;;;;;;5053681;28;20044;-70
2022/10/12 10:31:12;;;;;;;15.00;4.25;;;12.90;99.90;;;;;;5060566;28;20071;-70
2022/10/12 10:34:06;;;;;;;12.13;4.07;;;13.00;99.90;;;;;;5061400;28;20582;-70
2022/10/12 10:36:53;;;;;;;12.27;3.90;;;13.10;99.90;;;;;;5044866;28;20063;-70
2022/10/12 10:39:51;;;;;;;14.15;3.63;;;13.00;99.90;;;;;;5059295;28;20125;-70
2022/10/12 10:42:35;;;;;;;11.63;4.10;;;13.00;99.90;;;;;;5058944;28;20448;-70
2022/10/12 10:45:30;;;;;;;16.58;3.92;;;13.10;99.90;;;;;;5060653;28;20051;-70
2022/10/12 10:48:20;;;;;;;13.70;4.03;;;13.20;99.90;;;;;;5043773;28;20043;-70
2022/10/12 10:50:55;;;;;;;13.30;4.07;;;13.40;99.90;;;;;;5060220;28;20044;-70
2022/10/12 10:53:24;;;;;;;15.32;3.92;;;13.40;99.90;;;;;;5057867;28;20048;-70
2022/10/12 10:56:06;;;;;;;11.15;3.55;;;13.40;99.90;;;;;;5055635;28;20052;-70
2022/10/12 10:59:10;;;;;;;12.27;3.00;;;13.40;99.90;;;;;;5044668;28;20626;-70
2022/10/12 11:02:00;;;;;;;13.55;3.05;;;13.50;99.90;;;;;;5057813;28;20419;-70
2022/10/12 11:04:33;;;;;;;10.63;2.80;;;13.50;99.90;;;;;;5059391;28;20051;-70
2022/10/12 11:07:17;;;;;;;11.45;2.92;;;13.60;99.90;;;;;;5041347;28;20069;-70
2022/10/12 11:09:46;;;;;;;13.27;2.83;;;13.60;99.90;;;;;;5057182;28;20048;-70
2022/10/12 11:12:30;;;;;;;11.15;2.60;;;13.60;99.90;;;;;;5059118;28;20059;-70
2022/10/12 11:15:41;;;;;;;16.92;3.10;;;13.70;99.90;;;;;;5061085;28;20047;-71
2022/10/12 11:18:19;;;;;;;14.05;3.05;;;13.70;99.90;;;;;;5016965;28;20051;-70
2022/10/12 11:20:51;;;;;;;12.32;2.90;;;13.80;99.90;;;;;;5060687;28;20044;-70
2022/10/12 11:23:27;;;;;;;13.15;3.33;;;13.90;99.90;;;;;;5058043;28;20041;-70
2022/10/12 11:26:14;;;;;;;14.23;3.17;;;13.80;99.90;;;;;;5061051;28;20123;-70
2022/10/12 11:28:41;;;;;;;13.98;3.40;;;14.00;99.90;;;;;;5050185;28;20040;-70
2022/10/12 11:31:18;;;;;;;16.75;3.60;;;14.10;99.90;;;;;;5060322;28;20234;-70
2022/10/12 11:33:45;;;;;;;17.02;3.45;;;14.20;99.90;;;;;;5058816;28;20759;-70
2022/10/12 11:36:15;;;;;;;13.63;3.13;;;14.30;99.90;;;;;;5036957;28;20139;-70
2022/10/12 11:38:53;;;;;;;11.65;3.17;;;14.30;99.90;;;;;;5051670;28;20048;-70
2022/10/12 11:41:23;;;;;;;7.85;2.67;;;14.20;99.90;;;;;;5058899;28;20503;-71
2022/10/12 11:44:02;;;;;;;13.20;3.20;;;14.30;99.90;;;;;;5041431;28;20056;-70
2022/10/12 11:46:46;;;;;;;13.68;2.90;;;14.20;99.90;;;;;;5047305;28;20037;-70
2022/10/12 11:49:27;;;;;;;9.55;2.50;;;14.20;99.90;;;;;;5059913;28;20044;-70
2022/10/12 11:51:56;;;;;;;12.38;3.53;;;14.30;99.90;;;;;;5060174;28;20128;-70
2022/10/12 11:54:27;;;;;;;15.38;3.17;;;14.30;99.90;;;;;;5059272;28;20492;-71
2022/10/12 11:56:57;;;;;;;14.77;2.58;;;14.40;99.90;;;;;;5044707;28;20060;-71
2022/10/12 11:59:35;;;;;;;9.90;2.97;;;14.50;99.90;;;;;;5055169;28;20045;-70
2022/10/12 12:02:22;;;;;;;12.13;2.90;;;14.40;99.90;;;;;;5060544;28;20052;-70
2022/10/12 12:04:48;;;;;;;9.45;3.00;;;14.60;99.90;;;;;;5057941;28;20044;-70
2022/10/12 12:07:39;;;;;;;9.70;2.13;;;14.70;99.90;;;;;;5025320;28;20045;-71
2022/10/12 12:10:24;;;;;;;17.55;3.25;;;14.70;99.90;;;;;;5056821;28;20467;-70
2022/10/12 12:13:11;;;;;;;12.50;2.78;;;14.60;99.90;;;;;;5058218;28;20447;-70
2022/10/12 12:16:01;;;;;;;13.07;2.70;;;14.50;99.90;;;;;;5053780;28;20498;-71
2022/10/12 12:18:29;;;;;;;14.68;2.80;;;14.60;99.90;;;;;;5026236;28;20055;-70
2022/10/12 12:21:09;;;;;;;10.73;2.78;;;14.50;99.90;;;;;;5042305;28;20044;-70
2022/10/12 12:23:50;;;;;;;11.40;3.03;;;14.60;99.90;;;;;;5053718;28;20040;-70
2022/10/12 12:26:18;;;;;;;8.05;2.45;;;14.60;99.90;;;;;;5048065;28;20079;-71
2022/10/12 12:28:46;;;;;;;8.63;2.30;;;14.70;99.90;;;;;;5052243;28;20500;-71
2022/10/12 12:31:22;;;;;;;12.82;2.67;;;14.60;99.90;;;;;;5056260;28;20195;-70
2022/10/12 12:33:59;;;;;;;11.05;2.60;;;14.50;99.90;;;;;;5051908;28;20072;-70
2022/10/12 12:36:31;;;;;;;8.60;2.40;;;14.50;99.90;;;;;;5045371;28;20384;-70
2022/10/12 12:38:57;;;;;;;8.65;2.38;;;14.50;99.90;;;;;;5054400;28;20060;-70
2022/10/12 12:41:56;;;;;;;9.55;2.13;;;14.50;99.90;;;;;;5042549;28;20040;-70
2022/10/12 12:44:37;;;;;;;8.00;1.95;;;14.50;99.90;;;;;;5057346;28;20128;-70
2022/10/12 12:47:02;;;;;;;14.18;4.20;;;14.30;99.90;;;;;;5038365;28;20618;-70
2022/10/12 12:49:42;;;;;;;10.10;2.42;;;14.50;99.90;;;;;;5052600;28;20045;-70
2022/10/12 12:52:19;;;;;;;9.45;2.47;;;14.50;99.90;;;;;;5054906;28;20053;-71
2022/10/12 12:55:02;;;;;;;8.48;2.40;;;14.50;99.90;;;;;;5056911;28;20932;-70
2022/10/12 12:57:43;;;;;;;8.18;2.08;;;14.50;99.90;;;;;;5039896;28;20536;-72
2022/10/12 13:00:17;;;;;;;8.45;2.40;;;14.50;99.90;;;;;;5054616;28;20690;-70
2022/10/12 13:03:14;;;;;;;8.48;2.28;;;14.40;99.90;;;;;;5053902;28;20057;-71
2022/10/12 13:06:04;;;;;;;9.77;2.20;;;14.50;99.90;;;;;;5052763;28;20055;-70
2022/10/12 13:09:01;;;;;;;7.90;2.07;;;14.30;99.90;;;;;;5036895;28;20043;-70